Time;durP1;ratioP1;P1;durP2;ratioP2;P2;SDS_P1;SDS_P2;PMS_P1;PMS_P2;Temp;Humidity;BMP_temperature;BMP_pressure;BME280_temperature;BME280_humidity;BME280_pressure;Samples;Min_cycle;Max_cycle;Signal;HPM_P1;HPM_P2
2021/03/11 00:00:36;;;;;;;46.00;19.73;;;-1.60;76.10;;;;;;4435971;32;20177;-73
2021/03/11 00:03:10;;;;;;;45.63;20.53;;;-1.60;76.00;;;;;;4426810;32;20142;-74
2021/03/11 00:05:38;;;;;;;43.17;19.67;;;-1.60;76.00;;;;;;4427101;32;20186;-73
2021/03/11 00:08:05;;;;;;;40.87;18.57;;;-1.70;76.10;;;;;;4427351;32;20193;-73
2021/03/11 00:10:33;;;;;;;49.43;20.50;;;-1.70;76.20;;;;;;4426801;32;20346;-73
2021/03/11 00:12:59;;;;;;;44.60;20.67;;;-1.80;76.50;;;;;;4426252;32;20403;-73
2021/03/11 00:15:27;;;;;;;47.63;19.23;;;-1.80;76.50;;;;;;4427401;32;20485;-73
2021/03/11 00:17:54;;;;;;;43.27;19.63;;;-1.80;76.80;;;;;;4427523;32;20213;-73
2021/03/11 00:20:23;;;;;;;43.70;20.00;;;-1.80;76.60;;;;;;4426278;32;20177;-73
2021/03/11 00:22:50;;;;;;;44.10;20.40;;;-1.70;77.00;;;;;;4428270;32;20155;-73
2021/03/11 00:25:18;;;;;;;47.37;19.97;;;-1.70;77.30;;;;;;4426823;32;20221;-73
2021/03/11 00:27:45;;;;;;;50.43;21.63;;;-1.80;78.20;;;;;;4428219;32;20178;-73
2021/03/11 00:30:13;;;;;;;45.90;20.57;;;-1.90;79.20;;;;;;4428197;32;20465;-73
2021/03/11 00:32:40;;;;;;;45.93;21.73;;;-2.00;79.70;;;;;;4426646;32;20211;-73
2021/03/11 00:35:08;;;;;;;54.37;21.77;;;-2.00;80.20;;;;;;4428019;32;20194;-73
2021/03/11 00:37:37;;;;;;;48.70;22.43;;;-2.10;80.40;;;;;;4426663;32;20378;-73
2021/03/11 00:40:05;;;;;;;47.57;22.30;;;-2.10;80.80;;;;;;4426711;32;20166;-73
2021/03/11 00:42:31;;;;;;;46.13;21.37;;;-2.10;80.20;;;;;;4427199;32;20188;-73
2021/03/11 00:44:58;;;;;;;53.93;22.87;;;-2.10;80.40;;;;;;4426529;32;20206;-73
2021/03/11 00:47:25;;;;;;;46.97;21.73;;;-2.20;80.70;;;;;;4426501;32;20201;-73
2021/03/11 00:49:52;;;;;;;54.93;22.43;;;-2.20;81.00;;;;;;4426352;32;20192;-73
2021/03/11 00:52:18;;;;;;;52.67;22.67;;;-2.20;80.20;;;;;;4425623;32;20499;-73
2021/03/11 00:54:45;;;;;;;45.27;21.97;;;-2.20;80.50;;;;;;4427511;32;20465;-73
2021/03/11 00:57:11;;;;;;;53.37;23.00;;;-2.20;80.20;;;;;;4427011;32;20155;-73
2021/03/11 00:59:38;;;;;;;48.07;21.93;;;-2.30;80.30;;;;;;4427641;32;20239;-73
2021/03/11 01:02:04;;;;;;;49.53;21.60;;;-2.30;80.70;;;;;;4425986;32;20158;-73
2021/03/11 01:04:31;;;;;;;48.80;21.83;;;-2.40;80.40;;;;;;4425994;32;20413;-73
2021/03/11 01:06:57;;;;;;;44.97;21.10;;;-2.30;80.70;;;;;;4426795;32;20183;-73
2021/03/11 01:09:24;;;;;;;47.77;21.13;;;-2.30;80.20;;;;;;4426415;32;20250;-73
2021/03/11 01:11:50;;;;;;;49.63;21.97;;;-2.30;80.20;;;;;;4426024;32;20161;-73
2021/03/11 01:14:17;;;;;;;49.00;21.57;;;-2.30;80.30;;;;;;4425924;32;20485;-73
2021/03/11 01:16:53;;;;;;;47.30;21.43;;;-2.30;80.70;;;;;;4426814;32;20503;-73
2021/03/11 01:19:20;;;;;;;42.13;20.93;;;-2.40;80.20;;;;;;4427689;32;20138;-73
2021/03/11 01:21:47;;;;;;;46.27;21.33;;;-2.30;80.00;;;;;;4425873;32;20151;-73
2021/03/11 01:24:16;;;;;;;49.53;21.60;;;-2.30;80.00;;;;;;4425954;32;20169;-73
2021/03/11 01:26:42;;;;;;;45.43;21.03;;;-2.30;80.20;;;;;;4426185;32;20196;-73
2021/03/11 01:29:09;;;;;;;48.63;21.43;;;-2.40;80.00;;;;;;4425857;32;20147;-73
2021/03/11 01:31:35;;;;;;;47.47;21.37;;;-2.40;80.30;;;;;;4426376;32;20195;-73
2021/03/11 01:34:02;;;;;;;46.37;20.90;;;-2.40;79.90;;;;;;4427040;32;20192;-73
2021/03/11 01:36:28;;;;;;;51.30;21.17;;;-2.40;80.50;;;;;;4425612;32;20153;-73
2021/03/11 01:38:55;;;;;;;46.37;21.63;;;-2.40;80.70;;;;;;4425714;32;20166;-73
2021/03/11 01:41:21;;;;;;;43.80;20.57;;;-2.40;80.40;;;;;;4425477;32;20150;-73
2021/03/11 01:43:49;;;;;;;51.17;20.60;;;-2.40;80.20;;;;;;4425619;32;20474;-73
2021/03/11 01:46:15;;;;;;;48.00;21.23;;;-2.40;79.90;;;;;;4426533;32;20352;-73
2021/03/11 01:48:42;;;;;;;51.17;20.67;;;-2.40;80.00;;;;;;4424952;32;20564;-73
2021/03/11 01:51:09;;;;;;;53.50;22.53;;;-2.40;80.30;;;;;;4426452;32;20150;-73
2021/03/11 01:53:36;;;;;;;47.70;20.57;;;-2.50;80.20;;;;;;4425481;32;20134;-72
2021/03/11 01:56:02;;;;;;;42.70;20.37;;;-2.50;80.50;;;;;;4426457;32;20197;-73
2021/03/11 01:58:29;;;;;;;47.63;21.73;;;-2.50;80.60;;;;;;4425407;32;20142;-73
2021/03/11 02:00:55;;;;;;;49.70;21.77;;;-2.50;80.20;;;;;;4426409;32;20477;-73
2021/03/11 02:03:23;;;;;;;45.87;20.87;;;-2.60;80.60;;;;;;4424725;32;20150;-73
2021/03/11 02:05:49;;;;;;;47.77;20.80;;;-2.60;80.70;;;;;;4424919;32;20159;-73
2021/03/11 02:08:16;;;;;;;46.60;20.87;;;-2.50;80.80;;;;;;4426050;32;20166;-73
2021/03/11 02:10:43;;;;;;;51.97;21.43;;;-2.50;80.90;;;;;;4424944;32;20195;-73
2021/03/11 02:13:20;;;;;;;47.13;21.00;;;-2.50;80.60;;;;;;4425223;32;20167;-73
2021/03/11 02:16:08;;;;;;;51.70;22.70;;;-2.50;80.60;;;;;;4425235;32;20169;-73
2021/03/11 02:18:41;;;;;;;47.30;21.47;;;-2.60;81.00;;;;;;4426580;32;20497;-73
2021/03/11 02:21:13;;;;;;;54.77;22.07;;;-2.60;81.10;;;;;;4425387;32;20169;-73
2021/03/11 02:24:45;;;;;;;50.63;21.67;;;-2.60;81.30;;;;;;4468122;32;20525;-73
2021/03/11 02:27:49;;;;;;;49.60;20.37;;;-2.70;81.40;;;;;;4453179;32;20181;-73
2021/03/11 02:30:16;;;;;;;48.33;21.53;;;-2.70;81.40;;;;;;4452961;32;20207;-73
2021/03/11 02:32:46;;;;;;;50.97;21.40;;;-2.70;81.80;;;;;;4446963;32;20160;-73
2021/03/11 02:35:14;;;;;;;51.60;21.53;;;-2.80;81.80;;;;;;4443941;32;20164;-73
2021/03/11 02:37:43;;;;;;;50.63;22.23;;;-2.80;82.10;;;;;;4436925;32;20166;-73
2021/03/11 02:40:13;;;;;;;51.50;21.23;;;-2.80;82.10;;;;;;4438961;32;20154;-73
2021/03/11 02:42:41;;;;;;;49.20;21.13;;;-2.80;82.00;;;;;;4436922;32;20166;-72
2021/03/11 02:45:10;;;;;;;57.17;21.90;;;-2.80;81.80;;;;;;4438463;32;20188;-73
2021/03/11 02:47:40;;;;;;;53.00;21.80;;;-2.70;81.60;;;;;;4437420;32;20175;-74
2021/03/11 02:50:08;;;;;;;53.53;22.23;;;-2.80;82.10;;;;;;4438473;32;20585;-73
2021/03/11 02:52:35;;;;;;;48.03;21.93;;;-2.80;82.20;;;;;;4438642;32;20143;-73
2021/03/11 02:55:21;;;;;;;55.37;22.30;;;-2.80;82.30;;;;;;4439140;32;20165;-73
2021/03/11 02:57:50;;;;;;;56.13;22.57;;;-2.80;82.30;;;;;;4438786;32;20290;-73
2021/03/11 03:00:19;;;;;;;50.07;21.13;;;-2.90;82.40;;;;;;4437971;32;20166;-73
2021/03/11 03:02:47;;;;;;;50.03;21.67;;;-2.90;82.90;;;;;;4436961;32;20159;-73
2021/03/11 03:05:20;;;;;;;50.83;20.87;;;-2.90;83.20;;;;;;4436681;32;20191;-73
2021/03/11 03:07:48;;;;;;;49.40;21.57;;;-2.90;83.10;;;;;;4437361;32;20204;-73
2021/03/11 03:10:17;;;;;;;49.07;21.07;;;-2.90;82.90;;;;;;4438589;32;20142;-73
2021/03/11 03:12:46;;;;;;;49.93;21.93;;;-3.00;83.30;;;;;;4438251;32;20143;-73
2021/03/11 03:15:14;;;;;;;49.50;21.40;;;-3.00;83.50;;;;;;4437052;32;20163;-73
2021/03/11 03:17:45;;;;;;;46.17;21.23;;;-3.00;83.90;;;;;;4438269;32;20193;-73
2021/03/11 03:20:13;;;;;;;49.47;20.83;;;-2.90;83.50;;;;;;4437521;32;20142;-73
2021/03/11 03:22:40;;;;;;;47.83;21.30;;;-3.00;83.50;;;;;;4436584;32;20199;-73
2021/03/11 03:25:11;;;;;;;46.43;20.73;;;-3.00;83.50;;;;;;4437827;32;20219;-73
2021/03/11 03:27:39;;;;;;;46.70;20.83;;;-3.00;83.90;;;;;;4438685;32;20143;-73
2021/03/11 03:30:18;;;;;;;46.57;20.47;;;-3.00;84.00;;;;;;4437846;32;20149;-73
2021/03/11 03:32:47;;;;;;;52.10;20.57;;;-3.10;84.10;;;;;;4437150;32;20139;-73
2021/03/11 03:35:15;;;;;;;48.07;20.60;;;-3.10;84.50;;;;;;4429829;32;20526;-73
2021/03/11 03:37:42;;;;;;;45.90;20.47;;;-3.10;84.20;;;;;;4426224;32;20515;-73
2021/03/11 03:40:10;;;;;;;46.33;19.67;;;-3.10;84.50;;;;;;4426522;32;20199;-73
2021/03/11 03:42:44;;;;;;;45.47;20.43;;;-3.20;84.70;;;;;;4426845;32;20151;-73
2021/03/11 03:45:14;;;;;;;48.30;20.20;;;-3.20;84.50;;;;;;4427181;32;20143;-73
2021/03/11 03:47:43;;;;;;;46.00;20.27;;;-3.10;84.50;;;;;;4425806;32;20380;-73
2021/03/11 03:50:11;;;;;;;44.13;20.67;;;-3.20;84.30;;;;;;4426376;32;20184;-73
2021/03/11 03:52:40;;;;;;;46.67;20.37;;;-3.20;84.60;;;;;;4425809;32;20374;-73
2021/03/11 03:55:09;;;;;;;42.37;19.83;;;-3.30;84.50;;;;;;4426549;32;20183;-72
2021/03/11 03:57:41;;;;;;;45.27;20.90;;;-3.30;85.10;;;;;;4427743;32;20194;-72
2021/03/11 04:00:08;;;;;;;49.93;21.00;;;-3.30;85.30;;;;;;4426419;32;20154;-73
2021/03/11 04:02:37;;;;;;;48.30;20.87;;;-3.30;85.50;;;;;;4426062;32;20174;-72
2021/03/11 04:05:06;;;;;;;45.37;21.00;;;-3.30;85.70;;;;;;4426124;32;20205;-73
2021/03/11 04:07:33;;;;;;;44.67;20.33;;;-3.30;86.00;;;;;;4426233;32;20218;-72
2021/03/11 04:10:05;;;;;;;44.60;20.13;;;-3.30;86.00;;;;;;4427483;32;20150;-72
2021/03/11 04:12:32;;;;;;;49.83;20.57;;;-3.30;86.10;;;;;;4427452;32;20223;-72
2021/03/11 04:14:59;;;;;;;45.97;20.87;;;-3.30;85.80;;;;;;4426025;32;20148;-73
2021/03/11 04:17:28;;;;;;;47.20;21.50;;;-3.30;86.10;;;;;;4427503;32;20180;-72
2021/03/11 04:19:59;;;;;;;46.33;20.77;;;-3.30;86.40;;;;;;4426469;32;20142;-72
2021/03/11 04:22:26;;;;;;;46.30;20.67;;;-3.30;86.30;;;;;;4425727;32;20189;-73
2021/03/11 04:24:53;;;;;;;45.67;20.80;;;-3.30;86.70;;;;;;4427859;32;20143;-73
2021/03/11 04:27:20;;;;;;;46.17;21.10;;;-3.40;87.00;;;;;;4426417;32;20396;-73
2021/03/11 04:29:47;;;;;;;49.80;20.77;;;-3.40;87.10;;;;;;4427283;32;20241;-73
2021/03/11 04:32:14;;;;;;;50.50;20.90;;;-3.50;87.30;;;;;;4427197;32;20188;-72
2021/03/11 04:34:41;;;;;;;50.00;20.90;;;-3.50;87.50;;;;;;4425950;32;20165;-73
2021/03/11 04:37:08;;;;;;;43.60;20.03;;;-3.50;87.50;;;;;;4425678;32;20495;-73
2021/03/11 04:39:36;;;;;;;45.90;20.50;;;-3.50;87.40;;;;;;4425428;32;20184;-73
2021/03/11 04:42:03;;;;;;;47.90;20.13;;;-3.50;87.60;;;;;;4426970;32;20159;-73
2021/03/11 04:44:31;;;;;;;42.97;19.83;;;-3.50;87.50;;;;;;4425502;32;20154;-73
2021/03/11 04:46:57;;;;;;;45.37;20.03;;;-3.50;88.10;;;;;;4424930;32;20189;-73
2021/03/11 04:49:26;;;;;;;43.53;19.63;;;-3.50;88.40;;;;;;4425464;32;20143;-73
2021/03/11 04:51:54;;;;;;;43.60;19.83;;;-3.50;88.10;;;;;;4425463;32;20399;-73
2021/03/11 04:54:21;;;;;;;47.83;20.97;;;-3.50;88.20;;;;;;4424821;32;20149;-73
2021/03/11 04:56:54;;;;;;;43.60;20.37;;;-3.50;88.40;;;;;;4426493;32;20147;-73
2021/03/11 04:59:21;;;;;;;46.30;19.77;;;-3.50;88.10;;;;;;4425244;32;20168;-73
2021/03/11 05:01:56;;;;;;;48.93;20.70;;;-3.50;88.10;;;;;;4426648;32;20148;-73
2021/03/11 05:04:24;;;;;;;45.27;20.17;;;-3.60;88.20;;;;;;4425054;32;20158;-73
2021/03/11 05:06:51;;;;;;;40.83;19.20;;;-3.60;88.40;;;;;;4425165;32;20146;-73
2021/03/11 05:09:17;;;;;;;44.93;20.33;;;-3.50;88.50;;;;;;4425224;32;20165;-73
2021/03/11 05:11:44;;;;;;;41.60;18.80;;;-3.50;89.40;;;;;;4425151;32;20492;-73
2021/03/11 05:14:11;;;;;;;45.80;19.23;;;-3.50;89.30;;;;;;4425353;32;20143;-73
2021/03/11 05:16:37;;;;;;;49.53;19.97;;;-3.40;89.00;;;;;;4425991;32;20393;-72
2021/03/11 05:19:04;;;;;;;45.90;19.97;;;-3.50;88.90;;;;;;4426434;32;20143;-73
2021/03/11 05:21:32;;;;;;;45.63;19.80;;;-3.60;89.00;;;;;;4425269;32;20151;-72
2021/03/11 05:23:59;;;;;;;47.33;19.87;;;-3.60;89.80;;;;;;4424779;32;20251;-73
2021/03/11 05:26:27;;;;;;;49.77;19.67;;;-3.60;90.00;;;;;;4424736;32;20376;-72
2021/03/11 05:28:54;;;;;;;45.97;19.27;;;-3.60;90.10;;;;;;4425758;32;20147;-73
2021/03/11 05:31:20;;;;;;;45.17;19.13;;;-3.60;90.00;;;;;;4424633;32;20198;-73
2021/03/11 05:33:47;;;;;;;42.73;19.30;;;-3.70;90.30;;;;;;4426196;32;20217;-73
2021/03/11 05:36:13;;;;;;;47.57;20.03;;;-3.60;90.40;;;;;;4424196;32;20151;-73
2021/03/11 05:38:44;;;;;;;44.50;20.43;;;-3.50;90.40;;;;;;4424526;32;20210;-73
2021/03/11 05:41:12;;;;;;;50.10;20.30;;;-3.50;90.40;;;;;;4426061;32;20139;-72
2021/03/11 05:43:40;;;;;;;44.33;19.97;;;-3.50;90.40;;;;;;4424621;32;20181;-73
2021/03/11 05:46:09;;;;;;;45.07;19.23;;;-3.40;90.40;;;;;;4423972;32;20183;-73
2021/03/11 05:48:39;;;;;;;44.97;21.17;;;-3.40;90.60;;;;;;4426039;32;20159;-73
2021/03/11 05:51:09;;;;;;;43.70;20.03;;;-3.30;90.50;;;;;;4424027;32;20415;-72
2021/03/11 05:53:37;;;;;;;47.93;20.13;;;-3.30;90.40;;;;;;4425717;32;20187;-72
2021/03/11 05:56:05;;;;;;;50.33;19.97;;;-3.30;90.50;;;;;;4424465;32;20201;-72
2021/03/11 05:58:32;;;;;;;43.80;19.87;;;-3.30;90.60;;;;;;4424303;32;20142;-73
2021/03/11 06:01:01;;;;;;;47.67;20.93;;;-3.20;90.50;;;;;;4424483;32;20190;-72
2021/03/11 06:03:31;;;;;;;50.07;21.07;;;-3.20;90.60;;;;;;4425932;32;20189;-72
2021/03/11 06:06:00;;;;;;;47.20;20.70;;;-3.10;90.60;;;;;;4424454;32;20525;-73
2021/03/11 06:08:27;;;;;;;50.40;21.17;;;-3.00;90.60;;;;;;4424431;32;20215;-73
2021/03/11 06:10:55;;;;;;;47.30;21.30;;;-3.00;90.70;;;;;;4425828;32;20151;-72
2021/03/11 06:13:26;;;;;;;48.30;21.60;;;-2.80;90.90;;;;;;4425748;32;20144;-72
2021/03/11 06:16:01;;;;;;;51.90;22.27;;;-2.60;90.60;;;;;;4424266;32;20138;-72
2021/03/11 06:18:32;;;;;;;49.47;21.70;;;-2.40;90.50;;;;;;4426010;32;20444;-72
2021/03/11 06:21:01;;;;;;;56.47;23.93;;;-2.40;90.30;;;;;;4423825;32;20152;-72
2021/03/11 06:23:30;;;;;;;54.20;22.73;;;-2.30;90.60;;;;;;4424166;32;20189;-72
2021/03/11 06:25:57;;;;;;;52.30;22.77;;;-2.30;90.20;;;;;;4425457;32;20230;-73
2021/03/11 06:28:45;;;;;;;52.77;22.40;;;-2.20;90.30;;;;;;4424160;32;20195;-73
2021/03/11 06:31:28;;;;;;;51.07;22.53;;;-2.00;90.00;;;;;;4424216;32;20147;-73
2021/03/11 06:33:58;;;;;;;57.63;22.90;;;-1.90;89.50;;;;;;4424104;32;20195;-73
2021/03/11 06:36:26;;;;;;;53.50;22.37;;;-1.90;89.50;;;;;;4424216;32;20166;-73
2021/03/11 06:38:56;;;;;;;49.47;22.10;;;-1.90;89.30;;;;;;4423632;32;20158;-73
2021/03/11 06:41:23;;;;;;;49.20;23.17;;;-1.90;88.80;;;;;;4423991;32;20147;-73
2021/03/11 06:43:54;;;;;;;54.23;23.53;;;-1.70;89.50;;;;;;4424754;32;20154;-73
2021/03/11 06:46:26;;;;;;;50.30;23.73;;;-1.60;90.10;;;;;;4424308;32;20194;-73
2021/03/11 06:49:25;;;;;;;53.37;22.67;;;-1.60;89.50;;;;;;4425140;32;20142;-73
2021/03/11 06:52:11;;;;;;;58.53;24.93;;;-1.50;90.20;;;;;;4347441;33;20172;-73
2021/03/11 06:54:58;;;;;;;58.53;24.27;;;-1.40;90.10;;;;;;4346772;33;20148;-73
2021/03/11 06:57:25;;;;;;;55.70;24.20;;;-1.20;89.60;;;;;;4346697;33;20174;-73
2021/03/11 06:59:52;;;;;;;53.80;24.43;;;-1.10;88.90;;;;;;4346096;33;20144;-73
2021/03/11 07:02:21;;;;;;;55.90;24.00;;;-1.00;89.20;;;;;;4347698;33;20149;-73
2021/03/11 07:04:48;;;;;;;60.63;24.30;;;-1.00;89.20;;;;;;4347279;33;20179;-73
2021/03/11 07:07:24;;;;;;;54.67;25.07;;;-0.80;88.90;;;;;;4347685;33;20307;-73
2021/03/11 07:09:55;;;;;;;57.37;24.43;;;-1.00;89.60;;;;;;4347908;33;20170;-72
2021/03/11 07:12:21;;;;;;;58.67;24.97;;;-0.90;89.70;;;;;;4350929;33;20168;-73
2021/03/11 07:14:49;;;;;;;58.17;25.60;;;-0.80;89.30;;;;;;4349606;33;20182;-73
2021/03/11 07:17:19;;;;;;;57.83;24.97;;;-0.80;88.90;;;;;;4350801;33;20218;-73
2021/03/11 07:20:07;;;;;;;50.33;22.90;;;-0.70;88.90;;;;;;4348985;33;20439;-73
2021/03/11 07:22:34;;;;;;;53.37;23.43;;;-0.60;88.00;;;;;;4350201;33;20208;-73
2021/03/11 07:25:01;;;;;;;55.67;22.87;;;-0.50;87.70;;;;;;4350663;33;20156;-73
2021/03/11 07:27:41;;;;;;;52.40;22.00;;;-0.40;86.80;;;;;;4387227;32;20196;-73
2021/03/11 07:30:08;;;;;;;53.77;22.77;;;-0.20;85.70;;;;;;4426480;32;20208;-73
2021/03/11 07:32:36;;;;;;;45.73;20.43;;;-0.20;85.60;;;;;;4426417;32;20532;-73
2021/03/11 07:35:03;;;;;;;42.97;18.83;;;-0.10;84.50;;;;;;4425441;32;20404;-73
2021/03/11 07:37:33;;;;;;;40.97;19.30;;;-0.20;84.00;;;;;;4426222;32;20195;-72
2021/03/11 07:40:00;;;;;;;39.13;17.63;;;-0.10;84.60;;;;;;4426294;32;20169;-73
2021/03/11 07:42:27;;;;;;;40.80;18.60;;;0.10;83.90;;;;;;4426216;32;20213;-73
2021/03/11 07:44:55;;;;;;;40.67;17.77;;;0.10;83.10;;;;;;4426124;32;20186;-73
2021/03/11 07:47:21;;;;;;;32.13;16.23;;;0.20;82.70;;;;;;4426215;32;20190;-70
2021/03/11 07:49:48;;;;;;;34.90;15.90;;;0.30;82.00;;;;;;4426362;32;20499;-72
2021/03/11 07:52:15;;;;;;;31.43;15.77;;;0.50;81.90;;;;;;4426478;32;20142;-73
2021/03/11 07:54:42;;;;;;;28.33;14.83;;;0.60;80.90;;;;;;4426221;32;20151;-72
2021/03/11 07:57:09;;;;;;;30.57;14.60;;;0.70;80.00;;;;;;4426287;32;20465;-72
2021/03/11 07:59:35;;;;;;;26.83;13.93;;;0.60;80.00;;;;;;4425920;32;20169;-72
2021/03/11 08:02:16;;;;;;;25.13;13.00;;;0.50;79.10;;;;;;4426061;32;20142;-73
2021/03/11 08:04:47;;;;;;;23.57;12.50;;;0.70;78.70;;;;;;4427340;32;20545;-73
2021/03/11 08:07:21;;;;;;;20.83;11.37;;;0.90;77.30;;;;;;4425828;32;20143;-71
2021/03/11 08:09:53;;;;;;;26.37;12.60;;;0.90;76.60;;;;;;4427189;32;20150;-72
2021/03/11 08:12:33;;;;;;;26.30;12.00;;;0.90;76.00;;;;;;4427456;32;20139;-72
2021/03/11 08:15:15;;;;;;;27.33;12.30;;;1.00;75.20;;;;;;4427313;32;20147;-71
2021/03/11 08:17:47;;;;;;;22.00;11.60;;;1.20;74.70;;;;;;4425621;32;20165;-70
2021/03/11 08:20:20;;;;;;;27.13;13.10;;;1.30;73.40;;;;;;4427192;32;20143;-72
2021/03/11 08:22:53;;;;;;;24.60;11.77;;;1.30;73.40;;;;;;4426433;32;20227;-73
2021/03/11 08:25:36;;;;;;;23.70;11.97;;;1.50;72.40;;;;;;4425705;32;20139;-71
2021/03/11 08:28:09;;;;;;;23.93;12.27;;;1.60;72.10;;;;;;4426198;32;20200;-70
2021/03/11 08:30:42;;;;;;;24.93;12.37;;;1.60;71.70;;;;;;4425308;32;20151;-70
2021/03/11 08:33:18;;;;;;;26.23;12.87;;;1.40;72.50;;;;;;4425428;32;20470;-72
2021/03/11 08:35:52;;;;;;;26.33;12.17;;;1.40;71.90;;;;;;4425476;32;20146;-72
2021/03/11 08:38:24;;;;;;;28.97;13.17;;;1.40;71.90;;;;;;4425832;32;20151;-71
2021/03/11 08:41:05;;;;;;;22.50;12.40;;;1.50;71.90;;;;;;4424727;32;20503;-72
2021/03/11 08:43:41;;;;;;;26.73;13.33;;;1.60;71.70;;;;;;4425290;32;20189;-72
2021/03/11 08:46:23;;;;;;;26.80;12.90;;;1.60;71.40;;;;;;4426937;32;20177;-72
2021/03/11 08:48:51;;;;;;;21.10;11.93;;;1.70;71.10;;;;;;4427283;32;20210;-72
2021/03/11 08:51:18;;;;;;;23.70;11.67;;;1.70;70.60;;;;;;4426604;32;20142;-71
2021/03/11 08:53:47;;;;;;;22.03;12.17;;;1.90;69.60;;;;;;4425040;32;20135;-71
2021/03/11 08:56:17;;;;;;;25.30;11.90;;;2.00;68.80;;;;;;4426484;32;20219;-72
2021/03/11 08:58:51;;;;;;;23.47;12.03;;;2.20;67.80;;;;;;4425328;32;20143;-72
2021/03/11 09:01:43;;;;;;;27.50;11.93;;;2.10;66.90;;;;;;4426730;32;20228;-72
2021/03/11 09:04:20;;;;;;;22.03;11.37;;;1.90;67.10;;;;;;4425064;32;20147;-72
2021/03/11 09:06:58;;;;;;;20.80;11.53;;;1.80;67.30;;;;;;4432695;32;20460;-71
2021/03/11 09:09:41;;;;;;;22.20;11.13;;;1.70;67.50;;;;;;4441821;32;20146;-72
2021/03/11 09:12:21;;;;;;;22.10;11.27;;;1.70;67.60;;;;;;4441729;32;20504;-72
2021/03/11 09:14:53;;;;;;;21.03;10.90;;;1.80;67.10;;;;;;4425504;32;20189;-71
2021/03/11 09:17:25;;;;;;;25.37;12.20;;;1.70;66.50;;;;;;4424372;32;20208;-71
2021/03/11 09:20:04;;;;;;;18.67;10.87;;;1.80;66.60;;;;;;4425942;32;20193;-70
2021/03/11 09:22:32;;;;;;;23.07;12.03;;;1.90;66.30;;;;;;4425880;32;20142;-72
2021/03/11 09:25:05;;;;;;;21.43;11.27;;;2.00;65.70;;;;;;4425502;32;20166;-71
2021/03/11 09:27:34;;;;;;;19.13;10.97;;;2.10;65.40;;;;;;4426906;32;20372;-71
2021/03/11 09:30:17;;;;;;;21.43;11.70;;;2.40;66.20;;;;;;4424972;32;20161;-71
2021/03/11 09:32:44;;;;;;;23.63;10.37;;;2.30;65.70;;;;;;4424501;32;20203;-72
2021/03/11 09:35:15;;;;;;;22.03;10.50;;;2.40;63.90;;;;;;4424621;32;20233;-74
2021/03/11 09:38:02;;;;;;;19.77;10.43;;;2.40;63.50;;;;;;4424694;32;20150;-72
2021/03/11 09:40:35;;;;;;;22.33;10.73;;;2.30;62.40;;;;;;4424176;32;20139;-73
2021/03/11 09:43:17;;;;;;;21.07;10.93;;;2.20;62.80;;;;;;4425175;32;20196;-73
2021/03/11 09:46:00;;;;;;;21.43;10.80;;;2.20;63.30;;;;;;4425988;32;20143;-72
2021/03/11 09:48:58;;;;;;;18.63;10.53;;;2.40;63.30;;;;;;4425260;32;20475;-72
2021/03/11 09:51:29;;;;;;;20.83;10.83;;;2.60;63.20;;;;;;4422326;32;20198;-74
2021/03/11 09:54:00;;;;;;;21.43;10.77;;;2.60;62.80;;;;;;4425994;32;20333;-72
2021/03/11 09:56:29;;;;;;;20.20;11.50;;;2.70;62.10;;;;;;4424565;32;20234;-72
2021/03/11 09:59:03;;;;;;;19.17;11.23;;;2.70;62.30;;;;;;4424313;32;20403;-71
2021/03/11 10:01:33;;;;;;;23.27;11.87;;;2.80;62.10;;;;;;4424440;32;20571;-73
2021/03/11 10:04:23;;;;;;;21.63;11.37;;;2.80;62.00;;;;;;4424609;32;20162;-73
2021/03/11 10:07:03;;;;;;;22.07;11.47;;;2.70;62.40;;;;;;4430615;32;20174;-73
2021/03/11 10:09:40;;;;;;;23.30;11.60;;;2.80;63.00;;;;;;4432031;32;20158;-72
2021/03/11 10:12:07;;;;;;;23.87;11.87;;;2.60;63.40;;;;;;4431631;32;20193;-73
2021/03/11 10:14:34;;;;;;;22.27;11.67;;;2.40;64.00;;;;;;4423763;32;20155;-74
2021/03/11 10:17:03;;;;;;;21.37;11.80;;;2.50;64.00;;;;;;4429103;32;20470;-73
2021/03/11 10:19:32;;;;;;;21.30;11.70;;;2.70;63.20;;;;;;4428923;32;20614;-73
2021/03/11 10:22:05;;;;;;;24.57;12.20;;;3.00;62.30;;;;;;4429156;32;20204;-73
2021/03/11 10:24:36;;;;;;;24.43;11.93;;;2.80;62.70;;;;;;4437410;32;20204;-73
2021/03/11 10:27:05;;;;;;;24.23;11.73;;;2.90;62.60;;;;;;4435116;32;20445;-73
2021/03/11 10:29:33;;;;;;;20.00;11.60;;;2.90;62.10;;;;;;4425082;32;20159;-74
2021/03/11 10:32:05;;;;;;;23.57;12.40;;;2.80;62.50;;;;;;4427207;32;20159;-73
2021/03/11 10:34:48;;;;;;;22.83;12.23;;;2.90;62.10;;;;;;4429292;32;20155;-72
2021/03/11 10:37:46;;;;;;;23.83;11.33;;;2.80;62.20;;;;;;4432521;32;20154;-71
2021/03/11 10:40:24;;;;;;;23.03;11.40;;;2.80;62.10;;;;;;4435156;32;20169;-74
2021/03/11 10:42:54;;;;;;;23.00;11.57;;;2.90;61.70;;;;;;4437083;32;20199;-72
2021/03/11 10:45:25;;;;;;;24.33;12.40;;;3.10;61.50;;;;;;4441265;32;20146;-73
2021/03/11 10:48:00;;;;;;;22.90;11.27;;;2.90;61.10;;;;;;4442496;32;20235;-73
2021/03/11 10:50:28;;;;;;;21.17;11.13;;;2.90;61.90;;;;;;4442569;32;20169;-74
2021/03/11 10:52:56;;;;;;;22.53;11.73;;;3.10;62.60;;;;;;4442313;32;20158;-72
2021/03/11 10:55:33;;;;;;;24.60;11.60;;;3.20;61.50;;;;;;4443852;32;20158;-73
2021/03/11 10:58:01;;;;;;;22.13;11.57;;;3.40;61.20;;;;;;4444051;32;20139;-74
2021/03/11 11:00:37;;;;;;;21.23;12.00;;;3.60;60.30;;;;;;4442572;32;20235;-72
2021/03/11 11:03:05;;;;;;;22.47;11.17;;;3.80;60.00;;;;;;4442262;32;20236;-73
2021/03/11 11:05:32;;;;;;;23.00;11.60;;;3.70;59.60;;;;;;4442243;32;20188;-73
2021/03/11 11:08:01;;;;;;;25.87;11.77;;;3.60;59.80;;;;;;4442358;32;20531;-73
2021/03/11 11:10:32;;;;;;;21.33;11.23;;;3.80;60.10;;;;;;4441048;32;20236;-74
2021/03/11 11:12:59;;;;;;;20.83;11.40;;;3.80;59.90;;;;;;4438045;32;20181;-73
2021/03/11 11:15:27;;;;;;;20.00;10.70;;;3.80;60.30;;;;;;4431291;32;20158;-73
2021/03/11 11:17:54;;;;;;;23.60;10.83;;;3.90;60.20;;;;;;4435589;32;20171;-74
2021/03/11 11:20:22;;;;;;;24.30;11.20;;;3.70;61.20;;;;;;4433169;32;20180;-74
2021/03/11 11:22:48;;;;;;;19.90;10.70;;;3.70;60.80;;;;;;4437938;32;20154;-74
2021/03/11 11:25:15;;;;;;;23.60;10.20;;;3.70;60.80;;;;;;4441965;32;20414;-74
2021/03/11 11:27:41;;;;;;;21.03;10.90;;;3.60;61.20;;;;;;4443310;32;20151;-74
2021/03/11 11:30:11;;;;;;;20.50;10.60;;;3.60;61.60;;;;;;4442362;32;20460;-74
2021/03/11 11:32:41;;;;;;;20.50;11.07;;;3.70;61.50;;;;;;4443273;32;20151;-74
2021/03/11 11:35:09;;;;;;;19.23;10.83;;;3.70;61.50;;;;;;4441859;32;20142;-74
2021/03/11 11:37:35;;;;;;;20.60;11.00;;;3.60;61.60;;;;;;4440999;32;20170;-74
2021/03/11 11:40:03;;;;;;;18.07;10.60;;;3.50;62.40;;;;;;4434175;32;20496;-74
2021/03/11 11:42:29;;;;;;;21.90;11.20;;;3.40;62.50;;;;;;4434752;32;20154;-74
2021/03/11 11:44:57;;;;;;;21.20;11.13;;;3.40;62.90;;;;;;4441477;32;20161;-73
2021/03/11 11:47:23;;;;;;;19.87;10.47;;;3.20;63.30;;;;;;4443216;32;20169;-73
2021/03/11 11:49:50;;;;;;;20.97;11.43;;;3.20;64.10;;;;;;4442867;32;20167;-73
2021/03/11 11:52:16;;;;;;;24.00;11.63;;;3.20;64.10;;;;;;4438327;32;20163;-73
2021/03/11 11:54:43;;;;;;;20.43;10.77;;;3.30;63.60;;;;;;4438492;32;20173;-73
2021/03/11 11:57:09;;;;;;;20.70;10.87;;;3.10;64.20;;;;;;4438360;32;20476;-73
2021/03/11 11:59:36;;;;;;;20.20;11.13;;;3.30;64.60;;;;;;4428108;32;20198;-73
2021/03/11 12:02:12;;;;;;;21.40;11.27;;;3.30;64.20;;;;;;4434329;32;20159;-73
2021/03/11 12:04:38;;;;;;;21.63;10.67;;;3.40;64.00;;;;;;4429494;32;20155;-73
2021/03/11 12:07:11;;;;;;;21.53;11.23;;;3.30;63.80;;;;;;4426661;32;20205;-75
2021/03/11 12:09:45;;;;;;;22.40;11.03;;;3.10;64.70;;;;;;4407514;32;20182;-73
2021/03/11 12:12:12;;;;;;;21.57;10.93;;;3.00;65.00;;;;;;4429200;32;20477;-74
2021/03/11 12:14:39;;;;;;;21.03;11.53;;;3.00;65.30;;;;;;4433824;32;20181;-73
2021/03/11 12:17:05;;;;;;;24.23;11.90;;;3.00;65.90;;;;;;4430845;32;20154;-73
2021/03/11 12:19:32;;;;;;;26.13;12.00;;;3.10;65.70;;;;;;4426518;32;20193;-74
2021/03/11 12:21:58;;;;;;;19.50;10.77;;;3.20;66.20;;;;;;4436629;32;20469;-73
2021/03/11 12:24:25;;;;;;;25.27;12.00;;;3.00;65.60;;;;;;4431939;32;20174;-72
2021/03/11 12:26:51;;;;;;;22.23;12.17;;;3.10;65.90;;;;;;4441191;32;20196;-73
2021/03/11 12:29:18;;;;;;;22.37;12.13;;;3.20;66.20;;;;;;4436871;32;20215;-73
2021/03/11 12:31:46;;;;;;;28.50;12.17;;;3.20;66.20;;;;;;4432981;32;20173;-73
2021/03/11 12:34:13;;;;;;;28.37;13.10;;;3.20;66.70;;;;;;4428188;32;20147;-73
2021/03/11 12:36:40;;;;;;;29.17;13.27;;;3.20;67.80;;;;;;4431856;32;20175;-72
2021/03/11 12:39:08;;;;;;;25.03;12.63;;;3.20;67.80;;;;;;4439218;32;20432;-72
2021/03/11 12:41:35;;;;;;;24.83;12.33;;;3.10;67.10;;;;;;4440857;32;20185;-72
2021/03/11 12:44:02;;;;;;;29.57;13.63;;;3.10;67.40;;;;;;4441141;32;20426;-73
2021/03/11 12:46:29;;;;;;;28.63;13.30;;;3.10;68.00;;;;;;4439795;32;20151;-72